Time;durP1;ratioP1;P1;durP2;ratioP2;P2;SDS_P1;SDS_P2;PMS_P1;PMS_P2;Temp;Humidity;BMP_temperature;BMP_pressure;BME280_temperature;BME280_humidity;BME280_pressure;Samples;Min_cycle;Max_cycle;Signal;HPM_P1;HPM_P2
2023/10/15 00:00:22;;;;;;;5.73;2.20;;;;;;;11.34;58.85;96425.13;4967136;28;20205;-71
2023/10/15 00:02:52;;;;;;;5.03;2.80;;;;;;;11.49;58.16;96422.72;4968025;28;20297;-70
2023/10/15 00:05:23;;;;;;;5.47;1.90;;;;;;;11.25;58.99;96427.34;4967497;28;20979;-70
2023/10/15 00:07:50;;;;;;;5.90;2.60;;;;;;;11.28;58.80;96435.91;4967623;28;20812;-71
2023/10/15 00:10:20;;;;;;;4.53;2.80;;;;;;;11.22;59.40;96436.22;4950340;28;20464;-70
2023/10/15 00:12:50;;;;;;;6.60;2.93;;;;;;;11.16;58.64;96432.06;4962706;28;20515;-71
2023/10/15 00:15:23;;;;;;;5.10;2.70;;;;;;;11.16;59.26;96439.97;4967787;28;20437;-70
2023/10/15 00:17:53;;;;;;;6.57;3.23;;;;;;;11.29;58.79;96445.53;4967401;28;20425;-72
2023/10/15 00:20:20;;;;;;;5.90;2.77;;;;;;;11.33;58.67;96446.22;4966490;28;20966;-70
2023/10/15 00:22:50;;;;;;;4.80;2.40;;;;;;;11.25;58.56;96443.94;4967374;28;20508;-71
2023/10/15 00:25:20;;;;;;;5.97;2.73;;;;;;;11.12;58.87;96443.63;4966419;28;20444;-72
2023/10/15 00:27:54;;;;;;;6.00;2.77;;;;;;;11.06;58.81;96446.56;4965471;28;20526;-71
2023/10/15 00:30:21;;;;;;;5.10;2.30;;;;;;;11.10;58.08;96442.00;4966760;28;20480;-72
2023/10/15 00:32:47;;;;;;;9.10;2.60;;;;;;;11.09;58.45;96453.44;4964260;28;20436;-71
2023/10/15 00:35:14;;;;;;;4.13;2.27;;;;;;;11.05;58.46;96444.84;4966128;28;20433;-71
2023/10/15 00:37:54;;;;;;;5.47;2.50;;;;;;;10.79;60.09;96446.88;4964898;28;20467;-71
2023/10/15 00:40:21;;;;;;;3.40;1.87;;;;;;;10.67;60.27;96454.41;4967276;28;21036;-71
2023/10/15 00:42:47;;;;;;;6.83;2.50;;;;;;;10.62;60.55;96445.91;4964828;28;20958;-72
2023/10/15 00:45:18;;;;;;;5.90;2.50;;;;;;;10.62;61.08;96454.63;4965951;28;20540;-70
2023/10/15 00:47:44;;;;;;;8.63;2.70;;;;;;;10.58;60.46;96447.78;4965341;28;20251;-71
2023/10/15 00:50:11;;;;;;;4.33;1.90;;;;;;;10.66;60.39;96447.47;4965642;28;20496;-71
2023/10/15 00:52:42;;;;;;;5.07;2.20;;;;;;;10.56;60.68;96444.41;4966058;28;20429;-71
2023/10/15 00:55:16;;;;;;;4.87;2.20;;;;;;;10.72;60.16;96442.78;4961593;28;20444;-70
2023/10/15 00:57:43;;;;;;;13.77;3.23;;;;;;;10.88;59.52;96442.97;4966393;28;20459;-70
2023/10/15 01:00:36;;;;;;;7.27;2.13;;;;;;;10.88;59.40;96442.13;4965815;28;20495;-71
2023/10/15 01:02:57;;;;;;;4.30;2.30;;;;;;;10.95;59.46;96439.16;4963244;28;20432;-71
2023/10/15 01:05:26;;;;;;;4.03;2.90;;;;;;;10.74;60.14;96433.06;4966992;28;20432;-72
2023/10/15 01:07:54;;;;;;;3.50;2.47;;;;;;;10.69;60.87;96437.69;4965769;28;20913;-70
2023/10/15 01:10:36;;;;;;;3.73;2.03;;;;;;;10.66;60.85;96443.06;4972244;28;20508;-71
2023/10/15 01:13:11;;;;;;;6.13;2.20;;;;;;;10.72;60.66;96432.28;4966363;28;20460;-72
2023/10/15 01:15:42;;;;;;;8.27;2.30;;;;;;;10.55;61.23;96432.19;4965173;28;20495;-70
2023/10/15 01:18:10;;;;;;;6.73;2.40;;;;;;;10.53;61.30;96421.75;4955496;28;20821;-70
2023/10/15 01:20:42;;;;;;;4.20;1.93;;;;;;;10.62;61.42;96420.50;4968293;28;20532;-70
2023/10/15 01:23:07;;;;;;;4.33;2.10;;;;;;;10.73;61.13;96418.25;4974612;28;20768;-70
2023/10/15 01:25:34;;;;;;;3.27;2.00;;;;;;;10.74;61.35;96424.34;4967206;28;20511;-70
2023/10/15 01:28:00;;;;;;;7.57;3.30;;;;;;;10.80;61.01;96422.31;4966909;28;20185;-70
2023/10/15 01:30:36;;;;;;;3.60;2.30;;;;;;;10.70;61.36;96426.28;4967092;28;21100;-70
2023/10/15 01:33:07;;;;;;;4.47;2.30;;;;;;;10.67;61.46;96410.66;4966969;28;20247;-70
2023/10/15 01:35:32;;;;;;;6.10;2.33;;;;;;;10.79;61.52;96415.38;4973053;28;20529;-70
2023/10/15 01:37:59;;;;;;;6.43;2.40;;;;;;;10.81;61.13;96424.00;4967382;28;20412;-72
2023/10/15 01:40:38;;;;;;;3.30;2.20;;;;;;;10.70;61.35;96428.03;4967204;28;20267;-72
2023/10/15 01:43:12;;;;;;;6.37;2.50;;;;;;;10.84;61.47;96419.53;4967171;28;20825;-71
2023/10/15 01:45:38;;;;;;;4.40;2.60;;;;;;;10.82;61.14;96414.38;4967075;28;20993;-71
2023/10/15 01:48:13;;;;;;;4.20;2.43;;;;;;;10.84;60.77;96412.50;4966632;28;20417;-70
2023/10/15 01:50:44;;;;;;;5.43;2.20;;;;;;;10.79;61.02;96418.00;4966714;28;20456;-71
2023/10/15 01:53:10;;;;;;;3.87;2.17;;;;;;;10.86;59.81;96412.47;4966894;28;20429;-71
2023/10/15 01:55:36;;;;;;;3.03;1.70;;;;;;;10.68;60.75;96403.66;4966785;28;20504;-70
2023/10/15 01:58:11;;;;;;;4.70;2.43;;;;;;;10.72;60.80;96410.44;4966673;28;20509;-70
2023/10/15 02:03:07;;;;;;;3.57;2.10;;;;;;;10.75;60.74;96419.06;4970915;28;20978;-71
2023/10/15 02:05:42;;;;;;;3.90;1.80;;;;;;;10.72;60.67;96423.56;4970833;28;20452;-70
2023/10/15 02:08:08;;;;;;;7.07;1.87;;;;;;;10.76;60.60;96420.75;4970389;28;20184;-71
2023/10/15 02:10:38;;;;;;;3.10;2.10;;;;;;;10.76;61.02;96412.88;4954467;28;20514;-71
2023/10/15 02:13:04;;;;;;;4.00;1.93;;;;;;;10.82;60.62;96422.25;4970694;28;20256;-70
2023/10/15 02:15:37;;;;;;;4.60;2.57;;;;;;;10.95;60.07;96417.31;4970558;28;20923;-70
2023/10/15 02:18:03;;;;;;;3.43;1.90;;;;;;;10.76;61.01;96410.25;4970444;28;20911;-71
2023/10/15 02:23:18;;;;;;;3.03;2.10;;;;;;;10.74;61.46;96412.06;4970539;28;20420;-70
2023/10/15 02:25:55;;;;;;;3.40;2.30;;;;;;;10.62;61.51;96410.00;4970338;28;20433;-70
2023/10/15 02:28:25;;;;;;;6.53;2.33;;;;;;;10.57;62.13;96419.84;4969329;28;20496;-70
2023/10/15 02:31:00;;;;;;;6.00;2.37;;;;;;;10.59;61.55;96410.16;4961689;28;21177;-70
2023/10/15 02:33:25;;;;;;;4.83;2.00;;;;;;;10.60;61.75;96423.19;4978006;28;20466;-70
2023/10/15 02:35:54;;;;;;;4.60;2.10;;;;;;;10.54;61.86;96422.63;4970375;28;20456;-70
2023/10/15 02:38:22;;;;;;;6.33;1.97;;;;;;;10.55;61.60;96412.03;4977163;28;20213;-71
2023/10/15 02:40:58;;;;;;;5.33;2.20;;;;;;;10.72;61.56;96411.28;4970153;28;20425;-71
2023/10/15 02:43:27;;;;;;;3.90;1.87;;;;;;;10.72;61.25;96402.56;4969832;28;20448;-71
2023/10/15 02:45:52;;;;;;;4.33;2.10;;;;;;;10.70;61.17;96407.03;4970498;28;20831;-70
2023/10/15 02:48:22;;;;;;;4.67;3.70;;;;;;;10.73;60.90;96414.78;4969706;28;20433;-72
2023/10/15 02:50:58;;;;;;;5.60;2.87;;;;;;;10.72;61.08;96424.41;4975773;28;20236;-71
2023/10/15 02:53:26;;;;;;;4.10;2.00;;;;;;;10.68;61.38;96415.00;4967779;28;20444;-71
2023/10/15 02:55:52;;;;;;;5.23;1.90;;;;;;;10.75;61.25;96420.81;4969000;28;20784;-71
2023/10/15 02:58:17;;;;;;;8.17;3.07;;;;;;;10.88;60.75;96415.88;4967420;28;20455;-71
2023/10/15 03:00:43;;;;;;;4.53;1.97;;;;;;;10.74;60.93;96424.34;4968642;28;20452;-71
2023/10/15 03:03:15;;;;;;;6.80;2.53;;;;;;;10.73;61.15;96420.03;4968324;28;20182;-71
2023/10/15 03:05:42;;;;;;;6.50;3.10;;;;;;;10.69;61.54;96423.72;4967766;28;20184;-71
2023/10/15 03:08:16;;;;;;;3.67;2.00;;;;;;;10.65;61.67;96422.97;4967191;28;20775;-71
2023/10/15 03:10:56;;;;;;;5.03;2.90;;;;;;;10.65;61.29;96415.09;4967941;28;20463;-71
2023/10/15 03:13:21;;;;;;;4.97;1.60;;;;;;;10.73;60.96;96413.00;4969395;28;20442;-72
2023/10/15 03:15:51;;;;;;;4.77;2.43;;;;;;;10.70;60.93;96417.53;4966616;28;20464;-71
2023/10/15 03:18:22;;;;;;;5.73;2.30;;;;;;;10.75;61.06;96412.94;4968293;28;20433;-71
2023/10/15 03:23:32;;;;;;;4.47;2.17;;;;;;;10.88;60.34;96418.50;4967586;28;20455;-71
2023/10/15 03:25:57;;;;;;;3.37;1.80;;;;;;;10.88;60.12;96416.72;4964995;28;20440;-73
2023/10/15 03:28:24;;;;;;;3.97;2.30;;;;;;;10.88;60.71;96419.34;4961962;28;20185;-70
2023/10/15 03:30:54;;;;;;;3.47;1.60;;;;;;;10.85;60.33;96430.00;4955156;28;20218;-72
2023/10/15 03:33:22;;;;;;;3.20;1.60;;;;;;;10.78;60.97;96420.69;4951363;28;20457;-72
2023/10/15 03:35:54;;;;;;;6.93;2.20;;;;;;;10.73;61.06;96414.78;4971530;28;20440;-70
2023/10/15 03:38:32;;;;;;;3.47;2.00;;;;;;;10.81;61.16;96408.25;4967838;28;20448;-71
2023/10/15 03:41:39;;;;;;;4.00;1.70;;;;;;;10.78;61.03;96408.41;4968409;28;20480;-71
2023/10/15 03:43:52;;;;;;;2.77;1.70;;;;;;;10.68;61.11;96415.00;4961015;28;20480;-71
2023/10/15 03:46:19;;;;;;;2.90;1.50;;;;;;;10.57;61.55;96415.44;4968232;28;20556;-72
2023/10/15 03:48:47;;;;;;;3.10;1.60;;;;;;;10.48;61.74;96405.34;4967015;28;20201;-72
2023/10/15 03:51:22;;;;;;;4.43;2.07;;;;;;;10.49;62.07;96401.81;4967074;28;20461;-71
2023/10/15 03:53:49;;;;;;;4.47;1.83;;;;;;;10.69;61.22;96394.84;4967911;28;20436;-72
2023/10/15 03:56:17;;;;;;;3.30;1.67;;;;;;;10.65;61.21;96390.63;4967789;28;20858;-72
2023/10/15 03:58:43;;;;;;;5.20;1.90;;;;;;;10.85;60.49;96400.25;4966123;28;20532;-70
2023/10/15 04:01:13;;;;;;;5.87;1.87;;;;;;;10.79;60.71;96404.88;4967309;28;20475;-71
2023/10/15 04:03:42;;;;;;;5.60;2.03;;;;;;;10.75;60.46;96397.22;4966415;28;20213;-72
2023/10/15 04:06:09;;;;;;;6.37;1.60;;;;;;;10.64;61.00;96397.66;4967540;28;21170;-72
2023/10/15 04:08:37;;;;;;;4.20;2.13;;;;;;;10.72;61.23;96387.66;4966381;28;20440;-71
2023/10/15 04:11:03;;;;;;;3.40;1.63;;;;;;;10.77;60.87;96385.72;4967486;28;20468;-72
2023/10/15 04:13:28;;;;;;;5.07;2.10;;;;;;;10.70;61.28;96392.16;4967944;28;20433;-71
2023/10/15 04:15:55;;;;;;;2.60;1.90;;;;;;;10.65;61.11;96396.72;4967560;28;20717;-72
2023/10/15 04:18:24;;;;;;;9.70;1.83;;;;;;;10.65;61.21;96401.97;4967196;28;20193;-72
2023/10/15 04:20:55;;;;;;;4.70;3.00;;;;;;;10.65;61.41;96396.72;4962046;28;20583;-70
2023/10/15 04:23:34;;;;;;;3.97;1.77;;;;;;;10.57;61.55;96393.59;4966112;28;21167;-72
2023/10/15 04:26:07;;;;;;;6.90;2.00;;;;;;;10.67;61.53;96394.06;4967528;28;20449;-72
2023/10/15 04:28:33;;;;;;;5.80;1.87;;;;;;;10.75;61.15;96395.44;4964993;28;20453;-71
2023/10/15 04:30:59;;;;;;;4.63;1.80;;;;;;;10.81;60.72;96389.03;4967193;28;20901;-71
2023/10/15 04:33:26;;;;;;;4.93;2.27;;;;;;;10.68;60.88;96394.00;4967651;28;20440;-71
2023/10/15 04:35:52;;;;;;;5.43;1.60;;;;;;;10.65;61.20;96391.47;4968143;28;20181;-70
2023/10/15 04:38:27;;;;;;;7.43;1.63;;;;;;;10.70;61.45;96389.53;4971293;28;21294;-72
2023/10/15 04:43:28;;;;;;;3.77;2.27;;;;;;;10.64;61.52;96383.69;4967120;28;20440;-71
2023/10/15 04:45:57;;;;;;;2.70;1.77;;;;;;;10.75;60.95;96391.97;4966507;28;20467;-72
2023/10/15 04:48:27;;;;;;;3.97;1.83;;;;;;;10.71;60.76;96380.72;4965726;28;20449;-72
2023/10/15 04:50:53;;;;;;;7.87;2.07;;;;;;;10.81;60.50;96375.91;4961833;28;20823;-71
2023/10/15 04:55:54;;;;;;;4.07;2.13;;;;;;;10.80;60.84;96374.22;4966443;28;20448;-72
2023/10/15 04:58:20;;;;;;;2.20;1.40;;;;;;;10.86;61.04;96367.81;4966866;28;20445;-72
2023/10/15 05:00:50;;;;;;;4.07;1.90;;;;;;;10.83;60.98;96368.81;4966741;28;20445;-70
2023/10/15 05:03:16;;;;;;;7.67;2.33;;;;;;;10.80;61.26;96366.34;4966381;28;20207;-71
2023/10/15 05:05:42;;;;;;;5.33;1.73;;;;;;;10.72;61.34;96365.81;4966063;28;20511;-71
2023/10/15 05:08:11;;;;;;;7.80;2.13;;;;;;;10.77;61.10;96361.22;4966091;28;22248;-71
2023/10/15 05:10:38;;;;;;;9.43;2.10;;;;;;;10.77;61.67;96377.84;4966041;28;20244;-71
2023/10/15 05:13:03;;;;;;;10.97;2.17;;;;;;;10.72;61.92;96382.41;4966422;28;20440;-71
2023/10/15 05:15:29;;;;;;;4.70;1.97;;;;;;;10.58;62.26;96384.81;4966350;28;20444;-70
2023/10/15 05:17:54;;;;;;;5.90;1.77;;;;;;;10.70;61.97;96370.28;4965170;28;20632;-72
2023/10/15 05:20:22;;;;;;;3.13;1.63;;;;;;;10.74;61.84;96375.34;4966584;28;20264;-71
2023/10/15 05:22:48;;;;;;;4.13;2.13;;;;;;;10.70;61.65;96384.28;4966903;28;20231;-71
2023/10/15 05:25:20;;;;;;;9.80;2.37;;;;;;;10.64;61.83;96378.44;4966006;28;20437;-72
2023/10/15 05:27:49;;;;;;;5.70;1.80;;;;;;;10.63;61.82;96388.09;4965922;28;20507;-71
2023/10/15 05:30:15;;;;;;;6.70;2.60;;;;;;;10.67;62.26;96386.19;4966084;28;20472;-71
2023/10/15 05:32:43;;;;;;;15.03;3.20;;;;;;;10.65;61.88;96381.00;4965883;28;21179;-72
2023/10/15 05:35:09;;;;;;;3.87;2.40;;;;;;;12.03;77.13;96387.66;4965405;28;20962;-72
2023/10/15 05:37:36;;;;;;;7.40;2.30;;;;;;;12.48;72.94;96385.41;4964621;28;20448;-71
2023/10/15 05:40:03;;;;;;;4.57;1.97;;;;;;;12.47;58.97;96384.56;4965131;28;20284;-71
2023/10/15 05:42:29;;;;;;;4.20;1.73;;;;;;;11.38;60.08;96391.69;4964970;28;20444;-72
2023/10/15 05:44:55;;;;;;;7.70;2.60;;;;;;;10.96;61.00;96390.97;4966837;28;21159;-72
2023/10/15 05:47:20;;;;;;;5.43;1.93;;;;;;;10.88;61.37;96390.47;4965867;28;20543;-71
2023/10/15 05:49:45;;;;;;;4.23;2.10;;;;;;;10.86;61.10;96392.31;4964964;28;20724;-71
2023/10/15 05:52:11;;;;;;;7.87;2.40;;;;;;;10.83;61.58;96395.06;4966248;28;20813;-72
2023/10/15 05:54:36;;;;;;;5.63;2.07;;;;;;;10.81;61.85;96382.00;4965494;28;20260;-72
2023/10/15 05:57:08;;;;;;;2.80;1.73;;;;;;;11.07;60.86;96387.84;4966165;28;20280;-70
2023/10/15 05:59:36;;;;;;;4.73;2.00;;;;;;;10.89;61.60;96393.94;4964501;28;20205;-72
2023/10/15 06:02:04;;;;;;;3.57;1.97;;;;;;;10.93;61.68;96395.50;4965298;28;20444;-72
2023/10/15 06:04:30;;;;;;;2.27;1.70;;;;;;;10.96;61.04;96396.22;4965443;28;20523;-71
2023/10/15 06:06:55;;;;;;;7.23;2.87;;;;;;;10.90;62.02;96404.38;4965919;28;20523;-72
2023/10/15 06:09:21;;;;;;;6.80;2.10;;;;;;;10.94;61.23;96407.72;4965634;28;20580;-71
2023/10/15 06:11:46;;;;;;;3.47;1.93;;;;;;;11.08;60.96;96401.81;4964848;28;20188;-71
2023/10/15 06:14:11;;;;;;;14.60;3.53;;;;;;;10.95;61.52;96409.41;4966250;28;20200;-71
2023/10/15 06:16:37;;;;;;;4.77;2.60;;;;;;;10.94;61.54;96405.94;4965287;28;20188;-71
2023/10/15 06:19:02;;;;;;;5.90;2.33;;;;;;;10.89;62.42;96409.69;4964615;28;20928;-72
2023/10/15 06:21:28;;;;;;;4.73;2.03;;;;;;;10.82;62.99;96411.75;4948031;28;20196;-71
2023/10/15 06:23:53;;;;;;;7.50;2.50;;;;;;;10.80;63.03;96411.81;4964571;28;20264;-71
2023/10/15 06:26:19;;;;;;;3.97;2.13;;;;;;;10.85;62.93;96421.28;4964399;28;20193;-71
2023/10/15 06:28:44;;;;;;;4.13;2.80;;;;;;;10.96;62.28;96433.00;4964142;28;20367;-72
2023/10/15 06:31:10;;;;;;;6.00;2.17;;;;;;;10.98;63.46;96456.53;4965199;28;20213;-71
2023/10/15 06:33:40;;;;;;;5.40;3.20;;;;;;;10.85;63.97;96440.50;4971185;28;20634;-71
2023/10/15 06:36:05;;;;;;;8.43;2.60;;;;;;;10.85;64.90;96434.41;4963510;28;20727;-71
2023/10/15 06:38:31;;;;;;;6.90;2.73;;;;;;;10.79;65.88;96436.38;4964797;28;20535;-72
2023/10/15 06:40:57;;;;;;;5.70;2.13;;;;;;;10.86;65.21;96447.44;4964749;28;20650;-71
2023/10/15 06:43:23;;;;;;;3.53;2.30;;;;;;;10.73;66.50;96443.66;4951014;28;20336;-71
2023/10/15 06:45:50;;;;;;;6.67;2.03;;;;;;;10.86;65.17;96454.47;4950844;28;20975;-71
2023/10/15 06:48:16;;;;;;;5.10;2.20;;;;;;;10.80;65.13;96461.69;4968158;28;20772;-71
2023/10/15 06:50:41;;;;;;;6.70;2.33;;;;;;;10.84;64.88;96461.53;4967764;28;20504;-71
2023/10/15 06:53:06;;;;;;;5.43;2.73;;;;;;;10.98;64.43;96462.66;4965168;28;20584;-71
2023/10/15 06:55:33;;;;;;;8.80;2.53;;;;;;;11.05;64.63;96463.22;4967095;28;20181;-71
2023/10/15 06:57:59;;;;;;;5.30;2.67;;;;;;;11.01;64.68;96459.91;4967029;28;20201;-72
2023/10/15 07:00:24;;;;;;;6.20;3.77;;;;;;;11.08;64.68;96470.09;4966153;28;20555;-72
2023/10/15 07:02:54;;;;;;;8.23;3.10;;;;;;;11.14;64.75;96469.84;4964594;28;20652;-71
2023/10/15 07:05:20;;;;;;;11.00;3.30;;;;;;;11.28;64.11;96474.47;4965942;28;21008;-71
2023/10/15 07:07:46;;;;;;;9.03;2.80;;;;;;;11.41;63.60;96473.00;4967253;28;20528;-72
2023/10/15 07:10:16;;;;;;;6.30;3.23;;;;;;;11.50;63.33;96463.81;4968077;28;20551;-72
2023/10/15 07:12:45;;;;;;;6.60;2.20;;;;;;;12.06;61.58;96470.81;4968137;28;21020;-71
2023/10/15 07:15:14;;;;;;;11.33;3.00;;;;;;;12.58;58.82;96475.28;4967188;28;20959;-71
2023/10/15 07:17:41;;;;;;;3.80;1.90;;;;;;;12.60;58.92;96479.53;4966336;28;20437;-72
2023/10/15 07:20:21;;;;;;;5.33;2.00;;;;;;;12.56;59.27;96475.34;4967990;28;20457;-72
2023/10/15 07:22:51;;;;;;;3.40;2.27;;;;;;;12.10;60.80;96479.44;4966881;28;20527;-74
2023/10/15 07:25:18;;;;;;;14.50;3.90;;;;;;;12.12;61.15;96467.91;4967795;28;20820;-71
2023/10/15 07:27:45;;;;;;;10.10;4.17;;;;;;;12.01;60.63;96475.47;4967600;28;21296;-71
2023/10/15 07:30:12;;;;;;;8.47;2.80;;;;;;;12.01;60.84;96476.31;4967946;28;20476;-72
2023/10/15 07:32:42;;;;;;;7.40;2.10;;;;;;;11.96;60.06;96466.94;4967224;28;20449;-71
2023/10/15 07:35:12;;;;;;;3.27;2.07;;;;;;;11.84;59.99;96473.63;4968845;28;20437;-72
2023/10/15 07:37:41;;;;;;;4.73;1.73;;;;;;;11.76;60.85;96465.22;4968196;28;20444;-72
2023/10/15 07:40:17;;;;;;;5.30;2.07;;;;;;;11.77;61.13;96473.06;4967024;28;20441;-71
2023/10/15 07:42:48;;;;;;;4.90;2.20;;;;;;;11.78;61.26;96474.75;4966837;28;20506;-71
2023/10/15 07:45:14;;;;;;;8.30;1.90;;;;;;;11.92;61.24;96483.78;4967199;28;20464;-70
2023/10/15 07:47:40;;;;;;;3.47;2.13;;;;;;;11.87;60.93;96484.00;4966982;28;20480;-70
2023/10/15 07:50:08;;;;;;;3.07;1.90;;;;;;;12.00;60.96;96479.88;4948746;28;21197;-72
2023/10/15 07:52:34;;;;;;;6.27;2.40;;;;;;;11.96;61.77;96474.84;4966169;28;20189;-70
2023/10/15 07:55:02;;;;;;;3.63;1.80;;;;;;;12.03;60.35;96478.88;4965424;28;20531;-72
2023/10/15 07:57:27;;;;;;;4.03;1.87;;;;;;;11.95;60.51;96476.63;4965634;28;20209;-70
2023/10/15 07:59:58;;;;;;;4.30;1.80;;;;;;;11.93;60.71;96474.97;4976979;28;20526;-72
2023/10/15 08:02:24;;;;;;;2.40;1.60;;;;;;;12.11;61.04;96470.59;4963703;28;20258;-72
2023/10/15 08:04:54;;;;;;;3.50;2.00;;;;;;;12.36;60.91;96471.09;4967046;28;20534;-71
2023/10/15 08:07:20;;;;;;;4.83;2.10;;;;;;;12.24;60.51;96482.25;4971774;28;20436;-71
2023/10/15 08:09:46;;;;;;;2.57;1.70;;;;;;;12.10;59.89;96484.69;4966799;28;20485;-71
2023/10/15 08:12:11;;;;;;;9.07;1.90;;;;;;;12.01;59.22;96488.63;4966620;28;20507;-71
2023/10/15 08:14:37;;;;;;;4.63;2.03;;;;;;;12.13;59.44;96495.06;4964511;28;20668;-71
2023/10/15 08:17:03;;;;;;;2.77;1.60;;;;;;;12.03;60.51;96494.66;4963940;28;20209;-71
2023/10/15 08:19:28;;;;;;;7.03;2.80;;;;;;;11.98;61.46;96487.00;4966987;28;20217;-72
2023/10/15 08:21:53;;;;;;;4.10;1.97;;;;;;;12.10;60.70;96493.44;4968514;28;20587;-72
2023/10/15 08:24:19;;;;;;;3.83;1.80;;;;;;;12.04;60.98;96488.47;4966549;28;20185;-70
2023/10/15 08:26:45;;;;;;;4.40;1.70;;;;;;;12.04;61.21;96485.81;4948853;28;20281;-71
2023/10/15 08:29:11;;;;;;;3.07;2.00;;;;;;;12.06;60.90;96495.34;4964139;28;20214;-70
2023/10/15 08:31:36;;;;;;;10.60;2.40;;;;;;;12.08;61.56;96495.28;4966566;28;20189;-69
2023/10/15 08:34:02;;;;;;;4.20;2.13;;;;;;;12.19;60.97;96495.63;4966521;28;20256;-71
2023/10/15 08:36:28;;;;;;;52.83;6.87;;;;;;;12.10;60.97;96495.22;4968722;28;20181;-71
2023/10/15 08:38:53;;;;;;;7.73;2.40;;;;;;;12.10;60.52;96496.06;4966658;28;20491;-71
2023/10/15 08:41:24;;;;;;;8.20;2.37;;;;;;;12.26;60.34;96493.53;4968065;28;20190;-70
2023/10/15 08:43:51;;;;;;;3.93;2.50;;;;;;;12.03;60.18;96492.03;4966964;28;20639;-70
2023/10/15 08:46:22;;;;;;;4.07;2.30;;;;;;;12.06;60.48;96499.75;4966349;28;20451;-70
2023/10/15 08:48:49;;;;;;;6.50;2.70;;;;;;;12.03;60.25;96500.75;4968451;28;20555;-70
2023/10/15 08:51:21;;;;;;;7.20;2.83;;;;;;;12.13;60.69;96498.53;4965281;28;21015;-70
2023/10/15 08:53:49;;;;;;;6.63;2.57;;;;;;;12.11;60.42;96500.38;4966452;28;20429;-70
2023/10/15 08:56:21;;;;;;;4.87;2.40;;;;;;;12.16;61.37;96497.53;4966846;28;20428;-68
2023/10/15 08:58:52;;;;;;;6.10;2.70;;;;;;;12.16;61.04;96495.75;4966684;28;20413;-70
2023/10/15 09:01:18;;;;;;;5.00;2.30;;;;;;;12.12;60.03;96495.97;4967119;28;21001;-68
2023/10/15 09:03:44;;;;;;;9.20;3.30;;;;;;;12.16;59.93;96501.00;4968972;28;20473;-70
2023/10/15 09:06:10;;;;;;;4.73;2.67;;;;;;;12.27;59.62;96497.88;4972693;28;20432;-70
2023/10/15 09:08:37;;;;;;;5.83;3.07;;;;;;;12.18;59.41;96496.53;4966838;28;20190;-72
2023/10/15 09:11:04;;;;;;;9.13;3.87;;;;;;;12.17;60.09;96500.09;4967852;28;20201;-71
2023/10/15 09:13:29;;;;;;;4.77;2.73;;;;;;;12.20;58.61;96480.69;4967885;28;20413;-71
2023/10/15 09:15:57;;;;;;;5.30;3.03;;;;;;;12.19;58.14;96494.75;4967337;28;20431;-72
2023/10/15 09:18:25;;;;;;;5.50;3.20;;;;;;;12.25;58.66;96487.41;4965768;28;20181;-72
2023/10/15 09:20:51;;;;;;;11.23;3.20;;;;;;;12.37;59.05;96488.59;4965423;28;20457;-71
2023/10/15 09:23:16;;;;;;;4.93;3.70;;;;;;;12.36;57.67;96493.94;4949313;28;20578;-70
2023/10/15 09:25:42;;;;;;;6.10;3.93;;;;;;;12.28;57.16;96494.28;4948509;28;20264;-70
2023/10/15 09:28:08;;;;;;;6.63;3.00;;;;;;;12.46;55.55;96488.13;4943958;29;20261;-71
2023/10/15 09:30:33;;;;;;;7.57;3.67;;;;;;;12.34;57.33;96486.13;4945904;29;20581;-72
2023/10/15 09:32:59;;;;;;;6.90;3.00;;;;;;;12.39;56.85;96488.53;4946652;29;20441;-71
2023/10/15 09:35:25;;;;;;;8.23;3.17;;;;;;;12.41;55.27;96490.16;4945885;29;20178;-71
2023/10/15 09:37:53;;;;;;;13.83;2.70;;;;;;;12.31;55.04;96498.56;4945404;29;20641;-69
2023/10/15 09:40:20;;;;;;;7.60;3.43;;;;;;;12.39;56.16;96499.03;4946153;29;20548;-72
2023/10/15 09:42:49;;;;;;;4.67;2.43;;;;;;;12.41;56.83;96495.41;4945020;29;20529;-71
2023/10/15 09:45:23;;;;;;;6.80;2.60;;;;;;;12.58;55.07;96496.34;4947274;29;20508;-70
2023/10/15 09:47:55;;;;;;;8.67;3.20;;;;;;;12.35;55.69;96495.69;4947675;29;20939;-72
2023/10/15 09:50:24;;;;;;;2.97;2.60;;;;;;;12.31;56.01;96496.81;4946860;28;20476;-71
2023/10/15 09:52:57;;;;;;;9.30;3.20;;;;;;;12.43;54.75;96498.81;4947157;29;20800;-73
2023/10/15 09:55:26;;;;;;;7.60;2.30;;;;;;;12.40;53.87;96506.00;4947648;29;20409;-72
2023/10/15 09:57:54;;;;;;;5.87;2.70;;;;;;;12.31;52.67;96503.81;4951085;29;20424;-71
2023/10/15 10:00:26;;;;;;;4.83;2.27;;;;;;;12.28;53.62;96510.97;4956461;29;20552;-71
2023/10/15 10:03:13;;;;;;;4.60;2.20;;;;;;;12.35;53.58;96508.84;4948025;29;20429;-72
2023/10/15 10:05:51;;;;;;;9.13;1.90;;;;;;;12.50;52.20;96508.13;4954332;28;20483;-73
2023/10/15 10:08:35;;;;;;;27.00;6.30;;;;;;;12.53;52.17;96503.63;4965061;28;20621;-71
2023/10/15 10:11:30;;;;;;;11.57;6.83;;;;;;;12.80;51.82;96506.63;4963711;28;20461;-71
2023/10/15 10:14:17;;;;;;;4.07;2.40;;;;;;;13.04;50.30;96492.22;4944241;28;20440;-71
2023/10/15 10:16:43;;;;;;;6.60;2.80;;;;;;;13.18;50.71;96496.75;4963685;28;20429;-72
2023/10/15 10:19:09;;;;;;;6.03;2.90;;;;;;;13.14;49.85;96495.22;4964829;28;20839;-72
2023/10/15 10:21:35;;;;;;;9.20;3.00;;;;;;;13.26;48.64;96484.03;4967212;28;20440;-71
2023/10/15 10:24:02;;;;;;;3.30;2.13;;;;;;;13.44;48.85;96484.88;4968458;28;20436;-72
2023/10/15 10:26:32;;;;;;;5.50;1.90;;;;;;;13.51;47.71;96485.34;4967773;28;20264;-71
2023/10/15 10:28:59;;;;;;;4.17;2.27;;;;;;;13.71;47.87;96479.84;4965451;28;20471;-70
2023/10/15 10:31:26;;;;;;;8.13;2.33;;;;;;;14.27;47.06;96472.34;4965396;28;20429;-71
2023/10/15 10:33:55;;;;;;;7.97;2.90;;;;;;;14.77;45.90;96475.63;4968508;28;20559;-70
2023/10/15 10:36:28;;;;;;;9.00;2.40;;;;;;;14.92;45.29;96474.69;4961000;28;20444;-71
2023/10/15 10:39:10;;;;;;;7.77;2.60;;;;;;;15.18;44.82;96464.34;4961870;28;20471;-71
2023/10/15 10:41:45;;;;;;;7.00;2.77;;;;;;;15.67;48.81;96470.06;4966388;28;20436;-71
2023/10/15 10:44:34;;;;;;;11.70;4.30;;;;;;;16.49;59.98;96454.25;4969334;28;20447;-71
2023/10/15 10:47:17;;;;;;;11.33;3.00;;;;;;;16.77;47.70;96453.25;4952946;28;20596;-71
2023/10/15 10:49:55;;;;;;;4.27;2.20;;;;;;;15.95;42.01;96454.28;4965553;28;20464;-72
2023/10/15 10:52:36;;;;;;;6.03;2.27;;;;;;;15.27;42.74;96466.44;4966139;28;20436;-71
2023/10/15 10:55:33;;;;;;;8.23;2.20;;;;;;;14.65;44.01;96497.50;4962162;28;20412;-71
2023/10/15 10:58:02;;;;;;;5.47;3.33;;;;;;;14.07;47.85;96502.47;4953585;28;20410;-72
2023/10/15 11:00:30;;;;;;;5.13;1.60;;;;;;;13.23;49.85;96513.19;4949861;28;20941;-70
2023/10/15 11:02:58;;;;;;;7.80;2.07;;;;;;;13.09;52.23;96510.41;4950163;28;20501;-72
2023/10/15 11:05:24;;;;;;;5.00;1.70;;;;;;;12.98;53.19;96510.97;4950478;29;20414;-71
2023/10/15 11:07:49;;;;;;;3.87;2.33;;;;;;;12.87;54.13;96514.16;4950036;29;20732;-71
2023/10/15 11:10:16;;;;;;;8.40;1.77;;;;;;;12.69;53.55;96509.81;4950569;28;20210;-72
2023/10/15 11:12:45;;;;;;;10.73;2.10;;;;;;;12.34;52.94;96517.69;4950477;29;20218;-71
2023/10/15 11:15:10;;;;;;;7.40;1.67;;;;;;;12.42;53.97;96510.25;4952634;28;20450;-72
2023/10/15 11:17:36;;;;;;;6.70;2.10;;;;;;;12.59;54.19;96512.06;4969465;28;21133;-72
2023/10/15 11:20:03;;;;;;;9.37;1.70;;;;;;;12.63;53.50;96505.69;4968839;28;20281;-72
2023/10/15 11:22:29;;;;;;;5.00;1.57;;;;;;;12.71;51.98;96508.81;4969103;28;20551;-71
2023/10/15 11:24:55;;;;;;;6.30;1.50;;;;;;;12.57;51.54;96510.44;4968134;28;20417;-71
2023/10/15 11:27:21;;;;;;;3.13;1.60;;;;;;;12.53;51.03;96512.38;4970717;28;20165;-70
2023/10/15 11:29:47;;;;;;;4.43;2.60;;;;;;;12.55;50.63;96501.78;4970333;28;20778;-70
2023/10/15 11:32:12;;;;;;;6.50;1.73;;;;;;;12.66;50.29;96497.66;4968522;28;20424;-71
2023/10/15 11:34:39;;;;;;;2.53;1.30;;;;;;;12.45;49.48;96485.59;4968796;28;20722;-72
2023/10/15 11:37:07;;;;;;;5.70;1.50;;;;;;;12.99;50.07;96490.72;4969045;28;20178;-72
2023/10/15 11:39:43;;;;;;;2.10;1.30;;;;;;;13.44;48.40;96486.63;4969001;28;20570;-72
2023/10/15 11:42:09;;;;;;;3.87;1.70;;;;;;;13.17;48.53;96494.19;4968865;28;20515;-71
2023/10/15 11:44:41;;;;;;;5.13;2.27;;;;;;;13.77;47.07;96489.22;4967601;28;20897;-72
2023/10/15 11:47:27;;;;;;;5.33;1.77;;;;;;;13.66;47.34;96481.91;4967526;28;20904;-71
2023/10/15 11:49:54;;;;;;;4.07;1.80;;;;;;;13.42;46.81;96489.38;4966962;28;20471;-71
2023/10/15 11:52:22;;;;;;;1.53;1.23;;;;;;;13.11;47.78;96477.78;4966837;28;20499;-73
2023/10/15 11:54:50;;;;;;;3.00;1.47;;;;;;;13.18;48.95;96494.13;4967107;28;20436;-72